• Join FlightAware (Why Join?)
  • Login
  • US Flag 
11:52AM EDT


 

Airport Tracker/Info


-or-


 

Live Flight TrackerFlight Track Log ✈ N662AA ✈ 03-May-2012 ✈ KBOS - KDFW

Flight Track Log - Related Links

Times and Time Zones

All times are in EDT time to prevent confusion due to time zone crossing. See the N662AA flight status page for this flight to view local times or setup timezone preferences in your user account.

Time Position Orientation Groundspeed Altitude Reporting Facility
EDT Latitude Longitude Course Direction KTS MPH feet Rate Location/Type
02:03PM 42.3693 -71.0425 93° East  Level FlightAware Approximate
02:04PM 42.3667 -70.9833 90° East 164 189 900  Level Boston TRACON
02:04PM 42.3667 -70.9333 79° East 183 211 2,100 1,740 Climbing Boston TRACON
02:05PM 42.3833 -70.8167 25° Northeast 256 295 4,300 2,160 Climbing Boston TRACON
02:07PM 42.4547 -70.7714 337° Northwest 302 348 6,900 2,580 Climbing Boston Center
02:08PM 42.5242 -70.8117 304° West 235 270 9,800 2,100 Climbing Boston Center
02:09PM 42.5650 -70.8953 306° West 245 282 11,100 1,740 Climbing Boston Center
02:10PM 42.6247 -71.0067 312° West 315 362 13,300 2,160 Climbing Boston Center
02:11PM 42.6822 -71.0928 306° West 342 394 15,500 2,280 Climbing Boston Center
02:12PM 42.7458 -71.2103 312° West 353 406 17,900 2,040 Climbing Boston Center
02:13PM 42.8136 -71.3136 306° West 366 421 19,600 2,160 Climbing Boston Center
02:14PM 42.8711 -71.4203 280° West 366 421 22,300 2,340 Climbing Boston Center
02:15PM 42.8889 -71.5617 275° West 361 415 24,300 1,800 Climbing Boston Center
02:16PM 42.8983 -71.7089 276° West 382 440 25,900 1,620 Climbing Boston Center
02:17PM 42.9094 -71.8647 277° West 396 456 27,600 1,740 Climbing Boston Center
02:18PM 42.9228 -72.0233 276° West 417 480 29,400 1,740 Climbing Boston Center
02:19PM 42.9358 -72.1819 275° West 422 486 31,100 1,800 Climbing Boston Center
02:20PM 42.9464 -72.3408 278° West 422 486 33,000 1,860 Climbing Boston Center
02:21PM 42.9611 -72.4939 275° West 422 486 34,900 1,800 Climbing Boston Center
02:22PM 42.9714 -72.6444 272° West 412 474 36,600 1,380 Climbing Boston Center
02:23PM 42.9750 -72.7806 275° West 406 467 37,700 720 Climbing Boston Center
02:24PM 42.9850 -72.9311 276° West 406 467 38,100 180 Climbing Boston Center
02:25PM 42.9986 -73.1017 276° West 411 473 38,100  Level Boston Center
02:26PM 43.0103 -73.2522 274° West 406 467 38,100 -60 Level Boston Center
02:27PM 43.0175 -73.4000 275° West 406 467 38,000  Descending Boston Center
02:28PM 43.0264 -73.5506 275° West 406 467 38,100  Climbing Boston Center
02:29PM 43.0353 -73.7042 275° West 406 467 38,100  Level Boston Center
02:30PM 43.0439 -73.8550 275° West 406 467 38,100  Level Boston Center
02:31PM 43.0544 -74.0086 274° West 406 467 38,100  Level Boston Center
02:32PM 43.0628 -74.1622 274° West 406 467 38,100  Level Boston Center
02:33PM 43.0706 -74.3158 274° West 406 467 38,100  Level Boston Center
02:34PM 43.0783 -74.4697 274° West 406 467 38,100  Level Boston Center
02:35PM 43.0861 -74.6236 275° West 406 467 38,100  Level Boston Center
02:36PM 43.0953 -74.7803 274° West 406 467 38,100  Level Boston Center
02:37PM 43.1025 -74.9369 274° West 406 467 38,100  Level Boston Center
02:38PM 43.1094 -75.0936 273° West 411 473 38,100  Level Boston Center
02:39PM 43.1161 -75.2533 274° West 416 479 38,100  Level Boston Center
02:40PM 43.1244 -75.4131 274° West 422 486 38,100 360 Level Boston Center
02:41PM 43.1328 -75.5728 275° West 422 486 38,900 660 Climbing Boston Center
02:42PM 43.1414 -75.7069 273° West 422 486 39,500 360 Climbing Boston Center
02:44PM 43.1525 -76.0381 272° West 412 474 40,100 120 Climbing Cleveland Center
02:45PM 43.1564 -76.1914 250° West 412 474 40,000  Descending Cleveland Center
02:46PM 43.1181 -76.3392 247° West 407 468 40,100  Climbing Cleveland Center
02:47PM 43.0733 -76.4844 247° West 412 474 40,100  Level Cleveland Center
02:48PM 43.0283 -76.6267 246° West 412 474 40,100  Level Cleveland Center
02:49PM 42.9811 -76.7717 247° West 417 480 40,100  Level Cleveland Center
02:50PM 42.9358 -76.9189 246° West 417 480 40,100  Level Cleveland Center
02:51PM 42.8900 -77.0578 245° Southwest 417 480 40,100  Level Cleveland Center
02:52PM 42.8422 -77.1992 246° West 412 474 40,100  Level Cleveland Center
02:53PM 42.7961 -77.3406 247° West 407 468 40,100  Level Cleveland Center
02:54PM 42.7519 -77.4814 245° Southwest 407 468 40,100  Level Cleveland Center
02:55PM 42.7036 -77.6222 246° West 407 468 40,100  Level Cleveland Center
02:56PM 42.6592 -77.7597 244° Southwest 407 468 40,100  Level Cleveland Center
02:57PM 42.5986 -77.9261 246° West 401 461 40,100  Level Cleveland Center
02:58PM 42.5517 -78.0661 245° Southwest 401 461 40,100  Level Cleveland Center
02:59PM 42.5025 -78.2061 246° West 407 468 40,100  Level Cleveland Center
03:00PM 42.4553 -78.3486 246° West 412 474 40,100  Level Cleveland Center
03:01PM 42.4039 -78.5025 245° Southwest 407 468 40,100  Level Cleveland Center
03:02PM 42.3542 -78.6444 246° West 407 468 40,100  Level Cleveland Center
03:03PM 42.3067 -78.7864 245° Southwest 407 468 40,100  Level Cleveland Center
03:04PM 42.2586 -78.9281 244° Southwest 412 474 40,100  Level Cleveland Center
03:05PM 42.2083 -79.0667 248° West 412 474 40,100  Level Cleveland Center
03:06PM 42.1644 -79.2161 251° West 417 480 40,100  Level Cleveland Center
03:07PM 42.1244 -79.3739 251° West 429 494 40,100  Level Cleveland Center
03:08PM 42.0883 -79.5144 250° West 429 494 40,100  Level Cleveland Center
03:09PM 42.0481 -79.6606 251° West 429 494 40,100  Level Cleveland Center
03:10PM 42.0094 -79.8119 251° West 429 494 40,100  Level Cleveland Center
03:11PM 41.9708 -79.9631 249° West 429 494 40,100  Level Cleveland Center
03:12PM 41.9278 -80.1142 251° West 429 494 40,100  Level Cleveland Center
03:13PM 41.8886 -80.2625 250° West 429 494 40,100  Level Cleveland Center
03:14PM 41.8472 -80.4186 249° West 434 499 40,100  Level Cleveland Center
03:15PM 41.8058 -80.5664 250° West 434 499 40,100  Level Cleveland Center
03:16PM 41.7639 -80.7194 250° West 429 494 40,100  Level Cleveland Center
03:17PM 41.7219 -80.8753 250° West 434 499 40,100  Level Cleveland Center
03:18PM 41.6861 -81.0058 249° West 434 499 40,100  Level Cleveland Center
03:19PM 41.6417 -81.1583 250° West 434 499 40,100  Level Cleveland Center
03:20PM 41.6011 -81.3078 248° West 434 499 40,100  Level Cleveland Center
03:21PM 41.5564 -81.4572 248° West 434 499 40,100  Level Cleveland Center
03:22PM 41.5114 -81.6064 248° West 434 499 40,100  Level Cleveland Center
03:23PM 41.4661 -81.7581 247° West 434 499 40,100  Level Cleveland Center
03:24PM 41.4186 -81.9067 246° West 434 499 40,100  Level Cleveland Center
03:25PM 41.3689 -82.0522 247° West 434 499 40,100  Level Cleveland Center
03:26PM 41.3211 -82.2033 246° West 448 516 40,100  Level Cleveland Center
03:27PM 41.2731 -82.3486 247° West 442 509 40,100  Level Cleveland Center
03:28PM 41.2247 -82.4992 247° West 442 509 40,100  Level Cleveland Center
03:29PM 41.1764 -82.6467 247° West 437 503 40,100  Level Cleveland Center
03:30PM 41.1275 -82.7967 247° West 437 503 40,100  Level Cleveland Center
03:31PM 41.0742 -82.9603 247° West 437 503 40,100  Level Cleveland Center
03:33PM 40.9697 -83.2794 247° West 458 527 40,100  Level Indianapolis Center
03:34PM 40.9219 -83.4253 246° West 440 506 40,100 -60 Level Indianapolis Center
03:35PM 40.8761 -83.5597 246° West 440 506 40,000 -60 Descending Indianapolis Center
03:36PM 40.8239 -83.7161 246° West 440 506 40,000  Level Indianapolis Center
03:37PM 40.7736 -83.8639 245° Southwest 441 507 40,000  Level Indianapolis Center
03:38PM 40.7211 -84.0117 246° West 441 507 40,000  Level Indianapolis Center
03:39PM 40.6725 -84.1564 246° West 441 507 40,000  Level Indianapolis Center
03:40PM 40.6133 -84.3308 246° West 446 513 40,000  Level Indianapolis Center
03:41PM 40.5622 -84.4806 246° West 440 506 40,000  Level Indianapolis Center
03:42PM 40.5131 -84.6244 244° Southwest 440 506 40,000  Level Indianapolis Center
03:43PM 40.4594 -84.7708 245° Southwest 440 506 40,000  Level Indianapolis Center
03:44PM 40.4186 -84.8847 246° West 440 506 40,000  Level Indianapolis Center
03:45PM 40.3625 -85.0472 245° Southwest 440 506 40,100  Climbing Indianapolis Center
03:46PM 40.3128 -85.1875 245° Southwest 440 506 40,100  Level Indianapolis Center
03:47PM 40.2606 -85.3333 248° West 440 506 40,100  Level Indianapolis Center
03:48PM 40.2167 -85.4789 253° West 440 506 40,100  Level Indianapolis Center
03:49PM 40.1928 -85.5800 250° West 440 506 40,100  Level Chicago Center
03:51PM 40.1006 -85.9128 242° Southwest 446 513 40,100  Level Indianapolis Center
03:52PM 40.0433 -86.0519 242° Southwest 435 501 40,100  Level Indianapolis Center
03:53PM 39.9861 -86.1906 243° Southwest 440 506 40,100  Level Indianapolis Center
03:54PM 39.9286 -86.3347 241° Southwest 445 512 40,100  Level Indianapolis Center
03:55PM 39.8692 -86.4758 240° Southwest 445 512 40,100  Level Indianapolis Center
03:56PM 39.8072 -86.6136 241° Southwest 445 512 40,100  Level Indianapolis Center
03:57PM 39.7472 -86.7517 241° Southwest 440 506 40,100  Level Indianapolis Center
03:58PM 39.6892 -86.8892 241° Southwest 440 506 40,100  Level Indianapolis Center
03:59PM 39.6311 -87.0267 241° Southwest 440 506 40,100  Level Indianapolis Center
04:00PM 39.5706 -87.1664 242° Southwest 435 501 40,100  Level Indianapolis Center
04:02PM 39.4450 -87.4714 240° Southwest 429 494 40,100  Level Kansas City Center
04:03PM 39.3842 -87.6089 241° Southwest 440 506 40,100  Level Kansas City Center
04:04PM 39.3253 -87.7433 241° Southwest 440 506 40,100  Level Kansas City Center
04:05PM 39.2661 -87.8806 240° Southwest 440 506 40,100  Level Kansas City Center
04:06PM 39.2069 -88.0144 240° Southwest 440 506 40,100  Level Kansas City Center
04:07PM 39.1472 -88.1483 241° Southwest 440 506 40,100  Level Kansas City Center
04:08PM 39.0878 -88.2847 240° Southwest 440 506 40,100  Level Kansas City Center
04:09PM 39.0278 -88.4181 240° Southwest 440 506 40,100  Level Kansas City Center
04:10PM 38.9678 -88.5514 240° Southwest 440 506 40,100  Level Kansas City Center
04:11PM 38.9058 -88.6872 240° Southwest 440 506 40,100  Level Kansas City Center
04:12PM 38.8456 -88.8225 240° Southwest 440 506 40,100  Level Kansas City Center
04:13PM 38.7850 -88.9553 238° Southwest 440 506 40,100  Level Kansas City Center
04:14PM 38.7242 -89.0822 240° Southwest 433 498 40,100  Level Kansas City Center
04:15PM 38.6636 -89.2169 240° Southwest 438 504 40,100  Level Kansas City Center
04:16PM 38.6028 -89.3517 239° Southwest 438 504 40,100  Level Kansas City Center
04:17PM 38.5414 -89.4833 238° Southwest 438 504 40,100  Level Kansas City Center
04:18PM 38.4781 -89.6150 240° Southwest 438 504 40,100  Level Kansas City Center
04:19PM 38.4169 -89.7489 239° Southwest 443 510 40,100  Level Kansas City Center
04:20PM 38.3611 -89.8692 240° Southwest 443 510 40,100  Level Kansas City Center
04:21PM 38.2936 -90.0161 240° Southwest 443 510 40,100  Level Kansas City Center
04:22PM 38.2397 -90.1331 240° Southwest 437 503 40,100  Level Kansas City Center
04:23PM 38.1739 -90.2769 239° Southwest 437 503 40,100  Level Kansas City Center
04:24PM 38.1175 -90.3964 238° Southwest 437 503 40,100  Level Kansas City Center
04:25PM 38.0514 -90.5319 240° Southwest 431 496 40,100  Level Kansas City Center
04:26PM 37.9989 -90.6481 237° Southwest 431 496 40,100  Level Kansas City Center
04:27PM 37.9358 -90.7697 239° Southwest 420 483 40,100  Level Kansas City Center
04:28PM 37.8772 -90.8936 239° Southwest 420 483 40,100  Level Kansas City Center
04:29PM 37.8183 -91.0175 240° Southwest 420 483 40,100  Level Kansas City Center
04:30PM 37.7614 -91.1408 237° Southwest 420 483 40,100  Level Kansas City Center
04:31PM 37.6942 -91.2725 239° Southwest 420 483 40,100  Level Kansas City Center
04:32PM 37.6347 -91.3983 238° Southwest 420 483 40,100  Level Kansas City Center
04:33PM 37.5753 -91.5161 239° Southwest 420 483 40,100  Level Kansas City Center
04:34PM 37.5136 -91.6442 237° Southwest 424 488 40,100  Level Kansas City Center
04:35PM 37.4539 -91.7617 238° Southwest 424 488 40,100  Level Kansas City Center
04:36PM 37.3922 -91.8867 239° Southwest 419 482 40,100  Level Kansas City Center
04:37PM 37.3322 -92.0117 238° Southwest 419 482 40,100  Level Kansas City Center
04:38PM 37.2700 -92.1364 238° Southwest 419 482 40,100  Level Kansas City Center
04:39PM 37.2097 -92.2581 237° Southwest 419 482 40,100  Level Kansas City Center
04:40PM 37.1475 -92.3797 238° Southwest 419 482 40,100  Level Kansas City Center
04:41PM 37.0869 -92.5014 237° Southwest 418 481 40,100  Level Kansas City Center
04:43PM 36.9678 -92.7300 239° Southwest 415 478 40,100  Level Memphis Center
04:44PM 36.9092 -92.8531 236° Southwest 415 478 40,100  Level Memphis Center
04:45PM 36.8464 -92.9703 237° Southwest 415 478 40,100  Level Memphis Center
04:46PM 36.7833 -93.0925 238° Southwest 420 483 40,100  Level Memphis Center
04:47PM 36.7222 -93.2147 237° Southwest 420 483 40,100  Level Memphis Center
04:48PM 36.6608 -93.3342 235° Southwest 420 483 40,100  Level Memphis Center
04:49PM 36.5914 -93.4556 219° Southwest 420 483 40,100  Level Memphis Center
04:50PM 36.5014 -93.5450 213° Southwest 415 478 40,100  Level Memphis Center
04:51PM 36.4100 -93.6189 212° Southwest 410 472 40,100  Level Memphis Center
04:52PM 36.3100 -93.6972 209° Southwest 410 472 40,100  Level Memphis Center
04:53PM 36.2036 -93.7703 213° Southwest 427 491 40,100  Level Memphis Center
04:54PM 36.1100 -93.8458 212° Southwest 427 491 40,100  Level Memphis Center
04:55PM 36.0075 -93.9236 212° Southwest 427 491 40,100 -60 Level Memphis Center
04:56PM 35.9031 -94.0036 212° Southwest 432 497 40,000 -600 Descending Memphis Center
04:57PM 35.8028 -94.0811 213° Southwest 442 509 38,900 -1,140 Descending Memphis Center
04:58PM 35.7044 -94.1586 210° Southwest 435 501 37,800 -1,200 Descending Memphis Center
04:59PM 35.6044 -94.2306 212° Southwest 430 495 36,600 -900 Descending Memphis Center
05:00PM 35.5039 -94.3075 212° Southwest 430 495 36,000 -300 Descending Memphis Center
05:01PM 35.4011 -94.3867 211° Southwest 435 501 36,100  Climbing Memphis Center
05:02PM 35.3031 -94.4583 212° Southwest 430 495 36,100  Level Memphis Center
05:04PM 35.1161 -94.6014 213° Southwest 419 482 36,100  Level Fort Worth Center
05:05PM 35.0156 -94.6808 221° Southwest 424 488 36,100  Level Fort Worth Center
05:06PM 34.9258 -94.7747 222° Southwest 424 488 36,100  Level Fort Worth Center
05:07PM 34.8483 -94.8606 222° Southwest 424 488 36,100  Level Fort Worth Center
05:08PM 34.7544 -94.9619 222° Southwest 424 488 36,100 -600 Level Fort Worth Center
05:09PM 34.6747 -95.0478 221° Southwest 424 488 34,900 -1,140 Descending Fort Worth Center
05:10PM 34.5869 -95.1408 221° Southwest 430 495 33,900 -1,140 Descending Fort Worth Center
05:11PM 34.4947 -95.2367 222° Southwest 430 495 32,700 -1,440 Descending Fort Worth Center
05:12PM 34.4044 -95.3344 220° Southwest 430 495 31,000 -1,500 Descending Fort Worth Center
05:13PM 34.3081 -95.4322 221° Southwest 441 507 29,800 -1,200 Descending Fort Worth Center
05:14PM 34.2136 -95.5325 221° Southwest 451 519 28,700 -1,080 Descending Fort Worth Center
05:15PM 34.1211 -95.6297 222° Southwest 451 519 27,700 -1,020 Descending Fort Worth Center
05:16PM 34.0328 -95.7267 220° Southwest 446 513 26,700 -1,020 Descending Fort Worth Center
05:17PM 33.9419 -95.8186 222° Southwest 437 503 25,700 -1,860 Descending Fort Worth Center
05:18PM 33.8556 -95.9128 219° Southwest 431 496 23,100 -2,460 Descending Fort Worth Center
05:19PM 33.7628 -96.0044 220° Southwest 431 496 20,800 -2,880 Descending Fort Worth Center
05:20PM 33.6678 -96.1006 221° Southwest 425 489 17,300 -2,880 Descending Fort Worth Center
05:21PM 33.5914 -96.1792 228° Southwest 415 478 15,100 -2,340 Descending Fort Worth Center
05:22PM 33.5489 -96.2353 222° Southwest 387 445 13,700 -2,760 Descending FAA TRACON SMA TRACON (SMA)
05:22PM 33.4939 -96.2953 225° Southwest 385 443 11,700 -2,040 Descending FAA TRACON SMA TRACON (SMA)
05:23PM 33.4436 -96.3550 223° Southwest 364 419 11,000 -600 Descending FAA TRACON SMA TRACON (SMA)
05:24PM 33.4036 -96.4000 225° Southwest 316 364 10,900 -540 Descending FAA TRACON SMA TRACON (SMA)
05:24PM 33.3644 -96.4472 226° Southwest 285 328 10,300 -1,140 Descending FAA TRACON SMA TRACON (SMA)
05:25PM 33.3269 -96.4931 243° Southwest 276 318 9,400 -1,380 Descending FAA TRACON SMA TRACON (SMA)
05:26PM 33.3056 -96.5425 256° West 275 316 8,500 -1,440 Descending FAA TRACON SMA TRACON (SMA)
05:26PM 33.2925 -96.6036 256° West 274 315 7,500 -1,560 Descending FAA TRACON SMA TRACON (SMA)
05:27PM 33.2800 -96.6642 255° West 273 314 6,500 -1,380 Descending FAA TRACON SMA TRACON (SMA)
05:28PM 33.2683 -96.7167 255° West 269 310 5,700 -1,140 Descending FAA TRACON SMA TRACON (SMA)
05:28PM 33.2556 -96.7744 247° West 261 300 5,000 -540 Descending FAA TRACON SMA TRACON (SMA)
05:29PM 33.2358 -96.8303 244° Southwest 262 302 5,000  Level FAA TRACON SMA TRACON (SMA)
05:30PM 33.2164 -96.8778 245° Southwest 261 300 5,000  Level FAA TRACON SMA TRACON (SMA)
05:30PM 33.1950 -96.9325 244° Southwest 261 300 5,000  Level FAA TRACON SMA TRACON (SMA)
05:31PM 33.1756 -96.9800 244° Southwest 230 265 5,000 -420 Level FAA TRACON SMA TRACON (SMA)
05:32PM 33.1594 -97.0197 216° Southwest 193 222 4,500 -960 Descending FAA TRACON SMA TRACON (SMA)
05:32PM 33.1350 -97.0411 199° South 178 205 3,800 -1,200 Descending FAA TRACON SMA TRACON (SMA)
05:33PM 33.1028 -97.0547 180° South 179 206 3,000 -600 Descending FAA TRACON SMA TRACON (SMA)
05:34PM 33.0733 -97.0544 180° South 171 197 3,000  Level FAA TRACON SMA TRACON (SMA)
05:34PM 33.0436 -97.0547 180° South 153 176 3,000  Level FAA TRACON SMA TRACON (SMA)